Time;durP1;ratioP1;P1;durP2;ratioP2;P2;SDS_P1;SDS_P2;PMS_P1;PMS_P2;Temp;Humidity;BMP_temperature;BMP_pressure;BME280_temperature;BME280_humidity;BME280_pressure;Samples;Min_cycle;Max_cycle;Signal;HPM_P1;HPM_P2
2021/10/02 00:35:16;;;;;;;3.17;2.10;;;;;;;23.38;35.66;95711.41;4985640;28;20124;-65
2021/10/02 00:45:41;;;;;;;3.63;2.10;;;;;;;23.31;35.92;95706.44;4989620;28;20073;-65
2021/10/02 00:48:07;;;;;;;2.63;1.85;;;;;;;23.34;35.76;95705.44;4989690;28;20109;-65
2021/10/02 00:50:33;;;;;;;4.45;2.15;;;;;;;23.24;36.21;95690.53;4989564;28;20107;-64
2021/10/02 00:52:58;;;;;;;3.28;1.90;;;;;;;23.29;35.89;95703.47;4989730;28;20038;-64
2021/10/02 00:55:24;;;;;;;4.03;1.88;;;;;;;23.31;36.05;95700.97;4989505;28;20104;-64
2021/10/02 00:57:50;;;;;;;4.18;2.03;;;;;;;23.31;35.81;95700.97;4989502;28;20038;-64
2021/10/02 01:00:15;;;;;;;3.60;2.05;;;;;;;23.29;36.28;95697.25;4989633;28;20512;-65
2021/10/02 01:02:54;;;;;;;4.30;2.00;;;;;;;23.32;35.82;95690.81;4989426;28;20054;-64
2021/10/02 01:05:45;;;;;;;2.97;1.90;;;;;;;23.19;35.86;95677.66;4987892;28;20169;-65
2021/10/02 01:08:28;;;;;;;3.50;1.98;;;;;;;23.28;36.14;95696.50;4988510;28;20037;-65
2021/10/02 01:11:03;;;;;;;3.60;2.08;;;;;;;23.26;35.93;95693.53;4989592;28;20501;-65
2021/10/02 01:13:50;;;;;;;3.03;2.17;;;;;;;23.26;35.93;95693.53;4989692;28;20026;-64
2021/10/02 01:16:28;;;;;;;3.75;1.80;;;;;;;23.25;36.27;95686.59;4989084;28;20026;-64
2021/10/02 01:19:12;;;;;;;3.30;2.00;;;;;;;23.24;36.15;95679.66;4989359;28;20751;-64
2021/10/02 01:21:47;;;;;;;4.75;2.15;;;;;;;23.24;35.98;95690.53;4989458;28;20034;-64
2021/10/02 01:24:44;;;;;;;3.05;2.10;;;;;;;23.24;35.88;95679.66;4989333;28;20030;-64
2021/10/02 01:27:32;;;;;;;4.13;2.17;;;;;;;23.21;35.93;95686.06;4935897;28;20031;-64
2021/10/02 01:30:01;;;;;;;4.95;2.05;;;;;;;23.15;35.85;95671.72;4989329;28;20038;-64
2021/10/02 01:32:33;;;;;;;3.90;2.47;;;;;;;23.21;36.18;95680.63;5003846;28;20026;-64
2021/10/02 01:47:09;;;;;;;5.43;2.55;;;;;;;23.18;36.39;95675.44;4988893;28;20077;-64
2021/10/02 01:48:32;;;;;;;4.07;2.63;;;;;;;23.16;36.20;95678.66;4987804;28;20233;-64
2021/10/02 01:50:57;;;;;;;6.20;2.67;;;;;;;23.15;36.26;95671.72;5003054;28;20121;-64
2021/10/02 01:53:23;;;;;;;4.25;2.33;;;;;;;23.12;36.46;95672.72;4988752;28;20472;-65
2021/10/02 01:55:48;;;;;;;3.00;2.10;;;;;;;23.14;36.08;95674.94;4987055;28;20034;-64
2021/10/02 01:58:16;;;;;;;3.95;2.42;;;;;;;23.11;36.22;95671.22;4988656;28;20066;-64
2021/10/02 02:00:46;;;;;;;5.18;2.42;;;;;;;23.09;36.20;95673.69;4987610;28;20022;-64
2021/10/02 02:03:13;;;;;;;;;;;;;;;23.11;36.34;95671.22;4989307;28;20050;-64
2021/10/02 02:05:40;;;;;;;5.68;2.90;;;;;;;22.94;35.98;95645.91;5003324;28;19914;-65
2021/10/02 02:08:13;;;;;;;4.72;3.72;;;;;;;23.06;36.08;95663.78;4988675;28;20499;-65
2021/10/02 02:10:39;;;;;;;3.60;3.05;;;;;;;23.09;36.24;95673.69;5003442;28;20767;-64
2021/10/02 02:13:04;;;;;;;5.03;4.22;;;;;;;23.08;36.36;95666.75;4988390;28;20567;-65
2021/10/02 02:15:30;;;;;;;6.47;4.18;;;;;;;23.06;36.29;95663.78;4988276;28;20109;-64
2021/10/02 02:17:59;;;;;;;4.15;3.50;;;;;;;23.05;36.52;95672.44;5003383;28;20523;-64
2021/10/02 02:20:36;;;;;;;4.25;3.53;;;;;;;22.94;36.21;95656.03;4986947;28;20538;-64
2021/10/02 02:23:02;;;;;;;6.35;4.68;;;;;;;23.05;36.21;95673.19;4986965;28;20037;-64
2021/10/02 02:25:28;;;;;;;5.00;4.50;;;;;;;23.04;36.18;95666.22;4987846;28;20083;-64
2021/10/02 02:27:54;;;;;;;7.45;6.75;;;;;;;23.04;36.27;95665.50;4988176;28;20030;-65
2021/10/02 02:30:20;;;;;;;8.65;6.55;;;;;;;23.00;36.21;95663.00;4988088;28;20030;-64
2021/10/02 02:32:45;;;;;;;7.88;7.18;;;;;;;22.90;36.54;95645.38;4987871;28;20504;-64
2021/10/02 02:35:11;;;;;;;7.70;7.05;;;;;;;23.03;36.31;95670.22;4986556;28;20030;-64
2021/10/02 02:37:36;;;;;;;9.10;8.32;;;;;;;23.00;36.14;95660.28;4986746;28;20058;-64
2021/10/02 02:40:03;;;;;;;8.82;8.02;;;;;;;23.03;36.30;95664.00;4987985;28;20029;-65
2021/10/02 02:42:28;;;;;;;7.90;7.10;;;;;;;22.92;36.27;95642.88;4987742;28;20026;-64
2021/10/02 02:44:54;;;;;;;10.05;9.20;;;;;;;23.00;36.21;95660.28;4987693;28;20081;-64
2021/10/02 02:47:21;;;;;;;8.23;7.38;;;;;;;22.97;36.21;95655.81;4987684;28;20035;-64
2021/10/02 02:49:51;;;;;;;9.40;8.60;;;;;;;22.93;36.42;95654.53;4986472;28;20018;-64
2021/10/02 02:52:38;;;;;;;9.00;8.25;;;;;;;22.98;36.29;95662.75;5002727;28;20584;-65
2021/10/02 02:55:11;;;;;;;10.65;9.65;;;;;;;22.95;36.38;95658.28;4986149;28;20548;-64
2021/10/02 02:57:55;;;;;;;12.05;11.05;;;;;;;22.95;36.36;95663.72;4987535;28;20030;-64
2021/10/02 03:00:21;;;;;;;9.00;8.23;;;;;;;22.90;36.46;95650.06;4986375;28;20397;-64
2021/10/02 03:03:05;;;;;;;8.50;7.68;;;;;;;22.90;36.41;95650.81;4986198;28;20058;-64
2021/10/02 03:05:31;;;;;;;8.60;7.82;;;;;;;22.93;36.47;95655.31;4985932;28;20121;-64
2021/10/02 03:07:59;;;;;;;10.23;9.32;;;;;;;22.88;36.59;95653.28;4985913;28;20045;-64
2021/10/02 03:10:25;;;;;;;7.53;6.82;;;;;;;22.82;36.48;95643.59;4987105;28;20026;-64
2021/10/02 03:12:52;;;;;;;12.75;11.63;;;;;;;22.79;36.36;95638.38;4986139;28;20034;-64
2021/10/02 03:15:17;;;;;;;10.80;9.88;;;;;;;22.92;36.42;95653.78;5002134;28;20030;-64
2021/10/02 03:17:45;;;;;;;13.35;12.20;;;;;;;22.91;36.40;95657.75;4986869;28;20105;-65
2021/10/02 03:20:15;;;;;;;18.17;16.67;;;;;;;22.71;36.47;95637.38;4986013;28;20053;-64
2021/10/02 03:22:41;;;;;;;11.47;10.57;;;;;;;22.90;36.37;95656.25;5002353;28;20045;-64
2021/10/02 03:25:06;;;;;;;13.70;12.52;;;;;;;22.61;36.34;95617.78;4985914;28;20036;-65
2021/10/02 03:27:32;;;;;;;13.30;12.18;;;;;;;22.73;36.41;95630.19;4985612;28;20034;-64
2021/10/02 03:29:57;;;;;;;10.27;9.27;;;;;;;22.89;36.68;95654.75;5002111;28;20034;-64
2021/10/02 03:32:23;;;;;;;11.52;10.52;;;;;;;22.89;36.64;95654.03;5002283;28;20041;-64
2021/10/02 03:34:50;;;;;;;12.45;11.48;;;;;;;22.89;36.45;95652.03;4986795;28;20049;-64
2021/10/02 03:37:15;;;;;;;20.45;18.85;;;;;;;22.87;36.44;95650.28;4985517;28;20488;-64
2021/10/02 03:39:41;;;;;;;24.00;22.17;;;;;;;22.78;36.59;95647.78;4985618;28;20033;-65
2021/10/02 03:42:08;;;;;;;29.05;26.77;;;;;;;22.86;36.51;95644.13;4989057;28;20029;-64
2021/10/02 03:44:33;;;;;;;26.92;24.85;;;;;;;22.84;36.56;95646.59;5006312;28;20034;-64
2021/10/02 03:46:59;;;;;;;36.20;33.15;;;;;;;22.84;36.64;95645.81;5006266;28;20041;-64
2021/10/02 03:49:24;;;;;;;57.38;51.55;;;;;;;22.68;36.52;95622.03;5004762;28;20049;-64
2021/10/02 03:51:50;;;;;;;60.45;54.15;;;;;;;22.80;36.48;95645.34;5004645;28;20037;-65
2021/10/02 03:54:15;;;;;;;59.42;53.28;;;;;;;22.73;36.46;95629.47;4986545;28;20038;-64
2021/10/02 03:56:41;;;;;;;65.25;58.30;;;;;;;22.82;36.23;95637.41;4986418;28;20030;-64
2021/10/02 03:59:06;;;;;;;44.50;40.53;;;;;;;22.82;36.21;95638.16;4986829;28;20037;-64
2021/10/02 04:01:31;;;;;;;50.25;45.55;;;;;;;22.73;36.52;95626.75;4986771;28;20472;-64
2021/10/02 04:03:57;;;;;;;56.28;50.63;;;;;;;22.76;36.44;95644.81;4986468;28;20513;-64
2021/10/02 04:06:22;;;;;;;57.47;51.60;;;;;;;22.79;36.53;95638.38;5001201;28;20069;-64
2021/10/02 04:08:48;;;;;;;66.65;59.50;;;;;;;22.70;36.54;95620.28;4986221;28;20113;-64
2021/10/02 04:11:13;;;;;;;94.57;75.28;;;;;;;22.76;36.45;95633.94;4986666;28;20401;-64
2021/10/02 04:13:39;;;;;;;153.82;101.70;;;;;;;22.77;36.54;95641.59;4986273;28;20444;-64
2021/10/02 04:16:05;;;;;;;217.25;124.93;;;;;;;22.74;36.54;95637.13;4986248;28;20034;-64
2021/10/02 04:18:32;;;;;;;63.05;56.40;;;;;;;22.79;36.47;95638.38;4986079;28;20026;-64
2021/10/02 04:20:57;;;;;;;84.05;69.57;;;;;;;22.77;36.62;95640.88;4986493;28;20030;-64
2021/10/02 04:23:23;;;;;;;53.80;48.28;;;;;;;22.72;36.46;95634.16;4986078;28;20031;-64
2021/10/02 04:25:48;;;;;;;56.42;50.65;;;;;;;22.76;36.32;95644.81;4986011;28;20022;-64
2021/10/02 04:28:14;;;;;;;228.05;141.00;;;;;;;22.59;36.47;95630.41;4986497;28;20026;-64
2021/10/02 04:30:39;;;;;;;18.50;16.85;;;;;;;22.71;36.40;95642.81;4984983;28;20030;-65
2021/10/02 04:33:05;;;;;;;5.82;5.28;;;;;;;22.72;36.83;95644.28;4985967;28;20120;-64
2021/10/02 04:35:30;;;;;;;6.32;4.45;;;;;;;22.73;36.55;95646.53;5003868;28;20029;-64
2021/10/02 04:37:57;;;;;;;5.30;3.72;;;;;;;22.73;36.51;95651.25;5005229;28;20034;-64
2021/10/02 04:40:23;;;;;;;5.22;4.03;;;;;;;22.66;36.40;95640.81;5018427;28;20033;-64
2021/10/02 04:42:48;;;;;;;5.95;3.83;;;;;;;22.73;36.29;95645.78;5025150;28;20087;-64
2021/10/02 04:45:18;;;;;;;6.90;4.43;;;;;;;22.54;36.43;95622.94;5024964;28;20045;-64
2021/10/02 04:47:44;;;;;;;4.87;3.73;;;;;;;22.66;36.38;95640.81;5023876;28;20038;-64
2021/10/02 04:50:09;;;;;;;4.28;2.97;;;;;;;22.66;36.50;95641.56;5024484;28;20111;-65
2021/10/02 04:52:34;;;;;;;7.07;4.45;;;;;;;22.68;36.64;95649.25;5024969;28;20033;-64
2021/10/02 04:55:00;;;;;;;5.70;3.35;;;;;;;22.70;36.49;95641.31;5024722;28;20036;-64
2021/10/02 04:57:25;;;;;;;6.03;4.72;;;;;;;22.70;36.45;95646.78;5025066;28;20022;-64
2021/10/02 04:59:51;;;;;;;5.03;4.60;;;;;;;22.69;36.23;95639.81;5024811;28;20029;-64
2021/10/02 05:02:16;;;;;;;12.45;11.48;;;;;;;22.59;36.37;95630.41;5024870;28;20332;-65
2021/10/02 05:04:42;;;;;;;12.48;11.43;;;;;;;22.65;36.40;95650.97;5023326;28;20021;-64
2021/10/02 05:07:07;;;;;;;10.38;9.52;;;;;;;22.69;36.41;95650.72;5023784;28;20036;-64
2021/10/02 05:09:33;;;;;;;8.50;7.80;;;;;;;22.68;36.51;95654.69;5024704;28;20065;-64
2021/10/02 05:11:58;;;;;;;13.57;12.52;;;;;;;22.69;36.38;95656.16;5025377;28;20083;-64
2021/10/02 05:14:25;;;;;;;17.63;16.33;;;;;;;22.65;36.40;95655.66;5025003;28;20491;-64
2021/10/02 05:16:51;;;;;;;28.10;25.90;;;;;;;22.67;36.42;95653.19;5025114;28;20064;-64
2021/10/02 05:19:16;;;;;;;38.97;35.55;;;;;;;22.64;36.57;95654.16;5023855;28;20025;-64
2021/10/02 05:21:41;;;;;;;22.45;20.63;;;;;;;22.67;36.32;95658.63;5024934;28;20021;-64
2021/10/02 05:24:07;;;;;;;23.50;21.70;;;;;;;22.66;36.84;95651.69;5017859;28;20463;-64
2021/10/02 05:26:32;;;;;;;20.88;19.10;;;;;;;22.67;36.71;95653.19;5008976;28;20029;-64
2021/10/02 05:28:58;;;;;;;25.63;23.63;;;;;;;22.66;36.60;95662.59;5008774;28;20559;-65
2021/10/02 05:31:23;;;;;;;44.38;40.35;;;;;;;22.58;36.76;95650.69;5009010;28;20032;-67
2021/10/02 05:33:49;;;;;;;9.63;8.52;;;;;;;22.69;36.88;95672.50;5004687;28;20087;-66
2021/10/02 05:36:15;;;;;;;7.72;6.93;;;;;;;22.66;36.76;95651.69;5007919;28;20519;-66
2021/10/02 05:38:40;;;;;;;9.57;8.70;;;;;;;22.70;36.96;95668.56;5008390;28;20040;-66
2021/10/02 05:41:05;;;;;;;9.38;8.57;;;;;;;22.63;37.00;95658.88;5007303;28;20034;-66
2021/10/02 05:43:31;;;;;;;6.82;5.50;;;;;;;22.73;36.98;95678.47;5009639;28;20495;-64
2021/10/02 05:45:56;;;;;;;7.18;6.47;;;;;;;22.78;37.11;95681.22;5008059;28;20511;-65
2021/10/02 05:48:22;;;;;;;7.88;5.88;;;;;;;22.80;36.85;95667.84;5006916;28;20030;-65
2021/10/02 05:50:47;;;;;;;6.40;5.80;;;;;;;22.90;36.80;95683.50;5008000;28;20036;-65
2021/10/02 05:53:13;;;;;;;6.50;5.05;;;;;;;22.95;36.96;95685.50;5007422;28;20029;-65
2021/10/02 05:55:38;;;;;;;6.95;6.45;;;;;;;22.99;36.87;95680.59;5011747;28;20021;-66
2021/10/02 05:58:03;;;;;;;6.55;5.60;;;;;;;23.04;36.54;95682.56;5018981;28;20037;-66
2021/10/02 06:00:29;;;;;;;8.13;7.20;;;;;;;23.15;36.31;95693.53;5016537;28;20417;-64
2021/10/02 06:02:56;;;;;;;6.50;5.85;;;;;;;23.27;36.32;95695.00;5016764;28;20061;-65
2021/10/02 06:05:26;;;;;;;9.02;8.13;;;;;;;23.35;36.14;95690.59;5021324;28;20742;-66
2021/10/02 06:07:52;;;;;;;9.95;8.95;;;;;;;23.34;36.07;95672.00;5023422;28;20044;-65
2021/10/02 06:10:17;;;;;;;11.63;10.60;;;;;;;23.53;35.70;95684.69;5007737;28;20026;-66
2021/10/02 06:12:42;;;;;;;10.57;9.57;;;;;;;23.61;35.63;95682.94;5024827;28;20033;-66
2021/10/02 06:15:08;;;;;;;12.10;11.02;;;;;;;23.71;35.80;95684.22;5018855;28;20108;-65
2021/10/02 06:17:33;;;;;;;10.05;9.20;;;;;;;23.76;35.58;95686.22;5014065;28;20471;-66
2021/10/02 06:19:59;;;;;;;10.48;9.25;;;;;;;23.80;35.61;95686.72;5018458;28;20022;-65
2021/10/02 06:22:24;;;;;;;11.10;10.13;;;;;;;23.89;35.21;95679.75;5008406;28;20034;-66
2021/10/02 06:24:50;;;;;;;10.43;8.73;;;;;;;24.00;34.90;95679.00;5013882;28;20037;-66
2021/10/02 06:27:15;;;;;;;8.68;7.85;;;;;;;24.07;35.36;95684.72;5020216;28;20033;-66
2021/10/02 06:29:41;;;;;;;9.20;8.18;;;;;;;24.12;34.75;95692.13;5014552;28;20033;-64
2021/10/02 06:32:07;;;;;;;7.68;6.93;;;;;;;24.19;35.00;95685.44;5007412;28;20037;-63
2021/10/02 06:34:32;;;;;;;7.63;6.90;;;;;;;24.23;35.06;95686.69;5007264;28;20119;-63
2021/10/02 06:36:57;;;;;;;11.10;10.10;;;;;;;24.05;34.71;95649.00;5005245;28;20022;-64
2021/10/02 06:39:23;;;;;;;7.40;5.88;;;;;;;24.34;34.84;95692.16;5021934;28;20491;-63
2021/10/02 06:41:48;;;;;;;8.05;6.60;;;;;;;24.42;34.37;95698.59;5006914;28;20021;-63
2021/10/02 06:44:14;;;;;;;9.88;8.00;;;;;;;24.50;34.60;95688.66;5007585;28;20032;-63
2021/10/02 06:46:39;;;;;;;8.45;6.57;;;;;;;24.41;34.32;95675.28;5006971;28;20116;-61
2021/10/02 06:49:05;;;;;;;9.70;8.90;;;;;;;24.58;34.46;95695.09;5006887;28;20025;-65
2021/10/02 06:51:30;;;;;;;9.63;8.73;;;;;;;24.60;34.22;95681.66;5006571;28;20034;-63
2021/10/02 06:53:56;;;;;;;10.82;9.93;;;;;;;24.63;33.95;95680.66;5005336;28;20025;-65
2021/10/02 06:56:21;;;;;;;14.77;13.55;;;;;;;24.66;34.38;95680.38;5010375;28;20477;-65
2021/10/02 06:58:47;;;;;;;13.75;12.65;;;;;;;24.74;34.43;95686.06;5006559;28;20022;-67
2021/10/02 07:01:12;;;;;;;9.50;8.65;;;;;;;24.79;34.29;95693.53;5006637;28;20163;-68
2021/10/02 07:03:38;;;;;;;7.75;7.05;;;;;;;24.77;34.02;95679.63;5006588;28;20050;-67
2021/10/02 07:06:03;;;;;;;10.60;9.38;;;;;;;24.87;33.53;95685.06;5021133;28;20040;-66
2021/10/02 07:08:29;;;;;;;11.82;10.50;;;;;;;24.84;33.80;95669.66;5006052;28;20160;-66
2021/10/02 07:10:54;;;;;;;11.38;10.38;;;;;;;24.95;33.53;95686.00;5006547;28;20034;-66
2021/10/02 07:13:20;;;;;;;8.52;7.68;;;;;;;25.01;33.36;95689.50;5007359;28;20022;-66
2021/10/02 07:15:45;;;;;;;10.90;9.88;;;;;;;25.01;33.38;95688.75;5006277;28;20029;-67
2021/10/02 07:18:11;;;;;;;6.32;5.70;;;;;;;24.98;33.16;95685.00;5007156;28;20060;-66
2021/10/02 07:20:36;;;;;;;9.85;7.70;;;;;;;25.08;33.25;95678.03;5006704;28;20674;-66
2021/10/02 07:23:02;;;;;;;7.50;6.47;;;;;;;25.04;33.50;95677.56;5006216;28;20036;-66
2021/10/02 07:25:28;;;;;;;8.45;7.65;;;;;;;25.11;32.89;95677.03;5006362;28;20034;-66
2021/10/02 07:27:54;;;;;;;9.68;6.93;;;;;;;24.99;32.89;95652.97;5006496;28;20022;-66
2021/10/02 07:30:19;;;;;;;9.93;8.93;;;;;;;25.12;32.53;95667.56;5006320;28;20041;-66
2021/10/02 07:32:45;;;;;;;8.93;7.32;;;;;;;25.20;32.70;95668.53;4996947;28;20045;-65
2021/10/02 07:35:11;;;;;;;7.97;7.07;;;;;;;25.14;32.28;95665.09;5011779;28;20030;-66
2021/10/02 07:37:37;;;;;;;7.50;6.75;;;;;;;25.23;32.27;95661.28;5010067;28;20029;-65
2021/10/02 07:40:04;;;;;;;9.98;7.45;;;;;;;25.24;32.36;95663.53;5022019;28;20428;-65
2021/10/02 07:42:29;;;;;;;9.00;5.68;;;;;;;25.07;32.40;95643.75;5006059;28;20036;-67
2021/10/02 07:44:58;;;;;;;8.85;7.93;;;;;;;25.25;32.68;95665.03;5005777;28;20033;-66
2021/10/02 07:47:24;;;;;;;8.37;7.30;;;;;;;25.23;32.60;95662.06;4981115;28;20030;-65
2021/10/02 07:49:50;;;;;;;9.00;7.82;;;;;;;25.22;32.42;95655.09;5015636;28;20280;-65
2021/10/02 07:52:16;;;;;;;8.73;7.38;;;;;;;25.23;32.51;95651.13;5005332;28;20025;-65
2021/10/02 07:54:41;;;;;;;7.53;6.25;;;;;;;25.27;32.35;95657.03;5020347;28;20184;-65
2021/10/02 07:57:07;;;;;;;9.02;8.23;;;;;;;25.32;32.00;95659.75;5004093;28;20073;-64
2021/10/02 07:59:32;;;;;;;7.65;6.47;;;;;;;25.34;32.29;95656.50;5005683;28;20021;-64
2021/10/02 08:01:58;;;;;;;8.77;7.85;;;;;;;25.36;31.97;95654.00;4997129;28;20018;-65
2021/10/02 08:04:24;;;;;;;9.27;7.72;;;;;;;25.34;31.97;95651.03;5020534;28;20054;-65
2021/10/02 08:06:49;;;;;;;7.25;6.55;;;;;;;25.38;32.02;95652.25;5004242;28;20022;-66
2021/10/02 08:09:15;;;;;;;6.05;5.53;;;;;;;25.39;31.96;95648.25;5004236;28;20026;-65
2021/10/02 08:11:41;;;;;;;8.35;7.60;;;;;;;25.44;31.82;95638.53;5005620;28;20560;-64
2021/10/02 08:14:08;;;;;;;5.75;5.22;;;;;;;25.45;31.94;95645.50;5004448;28;20593;-65
2021/10/02 08:16:34;;;;;;;7.47;6.13;;;;;;;25.49;31.99;95640.50;5005328;28;20084;-64
2021/10/02 08:19:00;;;;;;;8.75;6.82;;;;;;;25.48;31.68;95644.47;5013399;28;20053;-65
2021/10/02 08:21:26;;;;;;;7.70;6.88;;;;;;;25.47;31.78;95653.94;5006208;28;20018;-65
2021/10/02 08:23:52;;;;;;;8.18;7.38;;;;;;;25.40;31.54;95638.81;5004375;28;20037;-64
2021/10/02 08:26:18;;;;;;;10.68;8.10;;;;;;;25.40;31.55;95632.63;5005516;28;20608;-64
2021/10/02 08:28:48;;;;;;;8.60;7.80;;;;;;;25.46;31.46;95636.78;5005566;28;20181;-64
2021/10/02 08:31:14;;;;;;;;;;;;;;;25.46;31.88;95636.06;5010172;28;20034;-64
2021/10/02 08:33:39;;;;;;;7.53;6.80;;;;;;;25.57;31.58;95635.97;5006681;28;20382;-65
2021/10/02 08:36:05;;;;;;;8.40;7.70;;;;;;;25.54;31.66;95632.25;5005610;28;20080;-65
2021/10/02 08:38:30;;;;;;;7.03;6.43;;;;;;;25.54;31.33;95626.78;5003556;28;20029;-66
2021/10/02 08:40:56;;;;;;;11.00;9.95;;;;;;;25.42;31.51;95619.16;5005612;28;20511;-66
2021/10/02 08:43:21;;;;;;;7.65;6.88;;;;;;;25.53;31.21;95635.47;5005149;28;20026;-67
2021/10/02 08:45:47;;;;;;;6.72;5.72;;;;;;;25.46;31.09;95614.19;5005162;28;20046;-64
2021/10/02 08:48:13;;;;;;;6.38;5.75;;;;;;;25.55;31.22;95616.59;5003961;28;20431;-64
2021/10/02 08:50:39;;;;;;;6.90;5.85;;;;;;;25.65;31.00;95636.91;5004036;28;20103;-64
2021/10/02 08:53:05;;;;;;;6.05;4.57;;;;;;;25.63;31.20;95628.47;5003308;28;20484;-65
2021/10/02 08:55:30;;;;;;;5.30;4.68;;;;;;;25.63;30.96;95634.66;5003719;28;20044;-65
2021/10/02 08:57:56;;;;;;;5.95;5.07;;;;;;;25.56;31.21;95656.34;4987514;28;20037;-67
2021/10/02 09:00:22;;;;;;;8.77;3.80;;;;;;;25.67;31.56;95628.97;5007155;28;20026;-65
2021/10/02 09:02:49;;;;;;;5.13;3.75;;;;;;;25.60;31.23;95607.59;5017379;28;20054;-66
2021/10/02 09:05:15;;;;;;;4.75;3.65;;;;;;;25.74;30.71;95672.16;5019828;28;20033;-66
2021/10/02 09:07:40;;;;;;;4.65;3.00;;;;;;;25.72;30.77;95630.91;5023658;28;20030;-66
2021/10/02 09:10:08;;;;;;;5.85;3.60;;;;;;;25.76;31.11;95614.97;5008075;28;20028;-65
2021/10/02 09:12:33;;;;;;;6.97;4.10;;;;;;;25.74;30.98;95612.75;5006489;28;20566;-66
2021/10/02 09:15:02;;;;;;;7.22;4.20;;;;;;;25.76;30.84;95612.22;5008110;28;20041;-66
2021/10/02 09:17:29;;;;;;;5.43;4.07;;;;;;;25.72;30.73;95614.50;5008252;28;20112;-66
2021/10/02 09:19:54;;;;;;;6.45;4.05;;;;;;;25.76;30.69;95615.69;5008496;28;20053;-67
2021/10/02 09:22:21;;;;;;;4.65;3.10;;;;;;;25.76;30.73;95604.03;5023201;28;20458;-65
2021/10/02 09:24:47;;;;;;;4.78;3.40;;;;;;;25.61;31.01;95641.91;5008001;28;20026;-66
2021/10/02 09:27:32;;;;;;;4.88;3.45;;;;;;;25.52;30.46;95568.38;5008063;28;20018;-65
2021/10/02 09:30:03;;;;;;;4.95;2.85;;;;;;;25.78;30.50;95661.69;5008547;28;20676;-67
2021/10/02 09:32:31;;;;;;;4.97;4.05;;;;;;;25.89;30.89;95591.94;5008191;28;20393;-65
2021/10/02 09:35:01;;;;;;;4.50;3.72;;;;;;;25.86;30.44;95584.75;5008501;28;20033;-65
2021/10/02 09:37:35;;;;;;;6.47;4.65;;;;;;;25.83;30.74;95594.00;5007468;28;20129;-66
2021/10/02 09:40:06;;;;;;;5.45;4.95;;;;;;;25.88;30.71;95590.44;5008112;28;20045;-65
2021/10/02 09:42:33;;;;;;;9.18;4.85;;;;;;;25.93;30.77;95592.41;5001475;28;20030;-65
2021/10/02 09:45:05;;;;;;;5.47;3.67;;;;;;;25.86;30.32;95587.50;5007677;28;20017;-64
2021/10/02 09:47:30;;;;;;;6.35;5.75;;;;;;;25.91;30.30;95567.53;4997039;28;20057;-64
2021/10/02 09:49:56;;;;;;;6.00;5.22;;;;;;;25.97;30.34;95581.91;5007242;28;20025;-63
2021/10/02 09:52:36;;;;;;;6.28;5.80;;;;;;;26.01;30.29;95571.44;5003966;28;20065;-64
2021/10/02 09:55:34;;;;;;;7.10;4.45;;;;;;;25.93;30.57;95580.72;5007260;28;20029;-64
2021/10/02 09:58:04;;;;;;;7.00;5.43;;;;;;;26.07;30.04;95569.38;5007249;28;20068;-65
2021/10/02 10:00:31;;;;;;;8.68;5.57;;;;;;;26.09;30.14;95577.81;5007257;28;20518;-64
2021/10/02 10:02:57;;;;;;;7.15;4.78;;;;;;;26.12;30.01;95565.81;5007446;28;20068;-66
2021/10/02 10:05:32;;;;;;;7.88;6.38;;;;;;;26.26;29.59;95563.94;5022741;28;20053;-66
2021/10/02 10:07:59;;;;;;;15.00;13.80;;;;;;;26.27;29.44;95549.00;5005693;28;20131;-66
2021/10/02 10:10:26;;;;;;;12.60;11.63;;;;;;;26.32;29.32;95562.63;5006642;28;20084;-64
2021/10/02 10:12:52;;;;;;;13.27;12.10;;;;;;;26.10;29.37;95518.31;5007463;28;20018;-64
2021/10/02 10:15:29;;;;;;;21.33;19.65;;;;;;;26.41;29.36;95565.03;5007469;28;20075;-64
2021/10/02 10:17:55;;;;;;;22.50;20.83;;;;;;;26.25;29.51;95546.78;5008467;28;20022;-64
2021/10/02 10:20:29;;;;;;;16.05;14.82;;;;;;;26.42;29.19;95555.56;5007603;28;20515;-63
2021/10/02 10:22:58;;;;;;;11.80;10.88;;;;;;;26.44;29.15;95553.03;5006361;28;20500;-63
2021/10/02 10:25:23;;;;;;;21.43;19.80;;;;;;;26.29;29.48;95541.75;5007145;28;20252;-65
2021/10/02 10:27:49;;;;;;;14.82;13.57;;;;;;;26.44;29.56;95553.03;5005968;28;20492;-64
2021/10/02 10:30:17;;;;;;;11.15;10.13;;;;;;;26.45;29.40;95555.25;5016385;28;20032;-65
2021/10/02 10:33:08;;;;;;;7.78;6.95;;;;;;;26.45;29.40;95560.00;5027036;28;20026;-66
2021/10/02 10:35:35;;;;;;;6.97;6.32;;;;;;;26.41;29.18;95557.56;5027243;28;20783;-67
2021/10/02 10:38:01;;;;;;;7.45;6.70;;;;;;;26.44;29.69;95553.03;5027016;28;20025;-66
2021/10/02 10:40:26;;;;;;;8.45;6.50;;;;;;;26.40;29.25;95530.69;5027371;28;20020;-66
2021/10/02 10:42:53;;;;;;;7.43;6.80;;;;;;;26.39;29.63;95529.22;5013502;28;20018;-67
2021/10/02 10:45:18;;;;;;;6.93;5.25;;;;;;;26.47;29.42;95530.84;5026204;28;20055;-65
2021/10/02 10:47:44;;;;;;;6.90;5.38;;;;;;;26.47;29.29;95530.09;5025623;28;20030;-68
2021/10/02 10:50:10;;;;;;;5.38;4.65;;;;;;;26.56;29.42;95532.47;5027122;28;20009;-67
2021/10/02 10:52:40;;;;;;;6.32;5.82;;;;;;;26.60;29.21;95528.19;5025916;28;20498;-68
2021/10/02 10:55:17;;;;;;;6.45;5.85;;;;;;;26.59;29.08;95531.44;5025991;28;20075;-65
2021/10/02 10:58:02;;;;;;;8.02;7.43;;;;;;;26.64;29.00;95533.38;5025314;28;20029;-66
2021/10/02 11:00:48;;;;;;;6.53;5.38;;;;;;;26.52;29.34;95504.66;5024036;28;20055;-66
2021/10/02 11:03:42;;;;;;;5.55;5.05;;;;;;;26.56;28.99;95505.06;5026136;28;20079;-65
2021/10/02 11:06:09;;;;;;;10.65;9.70;;;;;;;26.67;28.90;95515.91;5000525;28;20049;-68
2021/10/02 11:08:57;;;;;;;9.15;8.43;;;;;;;26.63;29.43;95520.94;5016992;28;20026;-67
2021/10/02 11:11:54;;;;;;;9.15;8.35;;;;;;;26.65;29.42;95518.41;5006811;28;20504;-69
2021/10/02 11:14:21;;;;;;;8.85;8.13;;;;;;;26.64;29.20;95511.47;5006546;28;20061;-68
2021/10/02 11:16:48;;;;;;;4.53;4.13;;;;;;;26.61;28.98;95501.53;5006354;28;20630;-67
2021/10/02 11:19:54;;;;;;;6.57;5.82;;;;;;;26.76;29.14;95501.81;5005110;28;20030;-66
2021/10/02 11:23:07;;;;;;;8.93;8.05;;;;;;;26.78;29.40;95500.03;5003142;28;20088;-67
2021/10/02 11:25:33;;;;;;;9.30;8.40;;;;;;;26.85;28.87;95499.44;5006091;28;20018;-68
2021/10/02 11:28:21;;;;;;;7.25;6.65;;;;;;;26.81;28.59;95499.72;5006458;28;20401;-69
2021/10/02 11:30:47;;;;;;;9.98;9.13;;;;;;;26.77;29.27;95499.31;5018189;28;20207;-70
2021/10/02 11:33:33;;;;;;;6.50;5.93;;;;;;;26.72;28.44;95479.44;5026226;28;20550;-71
2021/10/02 11:36:00;;;;;;;10.13;9.07;;;;;;;26.86;29.08;95489.94;5025794;28;20037;-71
2021/10/02 11:38:36;;;;;;;5.20;4.68;;;;;;;26.87;28.54;95486.69;5024617;28;20017;-71
2021/10/02 11:41:02;;;;;;;4.72;4.25;;;;;;;26.82;28.42;95479.28;5008523;28;20418;-71
2021/10/02 11:43:27;;;;;;;5.07;4.57;;;;;;;26.89;28.72;95473.25;5021274;28;20116;-65
2021/10/02 11:45:53;;;;;;;7.80;5.18;;;;;;;26.76;28.41;95474.41;5004190;28;20022;-65
2021/10/02 11:48:19;;;;;;;6.20;5.28;;;;;;;26.94;28.92;95479.91;5022572;28;20035;-64
2021/10/02 11:50:49;;;;;;;4.85;4.13;;;;;;;27.05;30.63;95479.72;5025847;28;20021;-64
2021/10/02 11:53:18;;;;;;;7.93;7.13;;;;;;;27.06;31.26;95481.94;5024127;28;20060;-64
2021/10/02 11:55:45;;;;;;;5.55;4.97;;;;;;;27.08;29.69;95484.88;5024114;28;20041;-64
2021/10/02 11:58:13;;;;;;;7.65;6.10;;;;;;;27.00;29.89;95462.09;5024574;28;20419;-65
2021/10/02 12:00:48;;;;;;;7.03;5.32;;;;;;;27.12;29.50;95485.34;5009690;28;20042;-64
2021/10/02 12:03:16;;;;;;;7.50;6.22;;;;;;;27.09;28.90;95480.91;5005634;28;20058;-67
2021/10/02 12:05:42;;;;;;;7.30;6.68;;;;;;;27.11;29.01;95477.63;5020215;28;20033;-67
2021/10/02 12:08:08;;;;;;;5.15;4.72;;;;;;;27.16;28.62;95485.78;5005158;28;20060;-67
2021/10/02 12:11:01;;;;;;;12.30;6.53;;;;;;;27.14;29.10;95477.31;5002988;28;20030;-67
2021/10/02 12:13:28;;;;;;;5.72;4.90;;;;;;;27.15;29.10;95489.78;5005529;28;20052;-66
2021/10/02 12:16:03;;;;;;;6.80;6.18;;;;;;;27.15;28.86;95478.81;5019477;28;20460;-68
2021/10/02 12:18:55;;;;;;;6.63;6.05;;;;;;;27.16;28.70;95474.81;5004076;28;20088;-66
2021/10/02 12:21:25;;;;;;;6.40;5.80;;;;;;;27.20;28.51;95480.72;5005126;28;20030;-66
2021/10/02 12:24:04;;;;;;;;;;;;;;;27.20;29.14;95474.50;5005193;28;20025;-66
2021/10/02 12:26:31;;;;;;;7.95;7.22;;;;;;;27.24;30.23;95469.44;5005043;28;19913;-63
2021/10/02 12:28:58;;;;;;;5.82;4.38;;;;;;;27.19;30.69;95454.56;5005110;28;20048;-64